2IS5 weather

CLOSED Parrish RLA Restricted Landing Area
Lacon, Illinois, United States

Public forecast

Using degrees Fahrenheit for public forecast. Weather courtesy of forecast.io.

Closest aviation weather report (METAR) to Parrish RLA Restricted Landing Area

Closest report is Marshall County Airport, 4.1 nm (7.7 km) NNE. Retrieved 2019/12/12 21:35 UTC (0 seconds ago):

KC75 122135Z AUTO 20009G15KT 10SM OVC085 08/M04 A3006 RMK AO2 T00811037

Closest aviation forecast (TAF) to Parrish RLA Restricted Landing Area

Closest forecast is General Wayne A. Downing Peoria International Airport, 21.6 nm (40.0 km) SW. Retrieved 2019/12/12 18:22 UTC (3 hours ago):

TAF KPIA 121720Z 1218/1318 20018G30KT P6SM BKN250 FM122100 20014G22KT P6SM SCT080 BKN200 FM130000 19008KT P6SM BKN080